Time;durP1;ratioP1;P1;durP2;ratioP2;P2;SDS_P1;SDS_P2;PMS_P1;PMS_P2;Temp;Humidity;BMP_temperature;BMP_pressure;BME280_temperature;BME280_humidity;BME280_pressure;Samples;Min_cycle;Max_cycle;Signal;HPM_P1;HPM_P2
2022/08/13 00:00:59;;;;;;;6.38;3.92;;;;;;;;;;4994572;28;20046;-80
2022/08/13 00:03:45;;;;;;;5.18;4.15;;;;;;;;;;4993670;28;20038;-80
2022/08/13 00:09:19;;;;;;;5.68;4.20;;;;;;;;;;4994613;28;20046;-82
2022/08/13 00:15:16;;;;;;;6.32;4.60;;;;;;;;;;4994397;28;20468;-81
2022/08/13 00:18:07;;;;;;;7.53;4.63;;;;;;;;;;4994299;28;20396;-81
2022/08/13 00:20:55;;;;;;;5.65;4.93;;;;;;;;;;4994320;28;20054;-81
2022/08/13 00:23:43;;;;;;;5.75;5.13;;;;;;;;;;4994268;28;20396;-82
2022/08/13 00:26:33;;;;;;;5.90;5.03;;;;;;;;;;4994219;28;20042;-82
2022/08/13 00:29:19;;;;;;;5.22;4.65;;;;;;;;;;4995470;28;20050;-81
2022/08/13 00:32:05;;;;;;;7.20;4.13;;;;;;;;;;5004495;28;20050;-82
2022/08/13 00:34:51;;;;;;;4.18;3.75;;;;;;;;;;4998181;28;20532;-82
2022/08/13 00:37:37;;;;;;;4.85;3.65;;;;;;;;;;4998053;28;20488;-82
2022/08/13 00:40:23;;;;;;;5.25;4.03;;;;;;;;;;5002265;28;20038;-82
2022/08/13 00:43:10;;;;;;;7.05;4.00;;;;;;;;;;5001673;28;20038;-79
2022/08/13 00:45:56;;;;;;;3.97;3.47;;;;;;;;;;5015848;28;20042;-78
2022/08/13 00:48:46;;;;;;;5.25;3.88;;;;;;;;;;4998597;28;20038;-82
2022/08/13 00:51:34;;;;;;;5.20;3.80;;;;;;;;;;4998417;28;20488;-82
2022/08/13 00:54:19;;;;;;;4.97;3.95;;;;;;;;;;4998113;28;20051;-82
2022/08/13 00:57:07;;;;;;;4.05;3.65;;;;;;;;;;4997816;28;20046;-82
2022/08/13 00:59:53;;;;;;;5.15;3.95;;;;;;;;;;4997678;28;20042;-82
2022/08/13 01:02:41;;;;;;;5.55;3.90;;;;;;;;;;5004467;28;20042;-82
2022/08/13 01:05:27;;;;;;;4.45;4.05;;;;;;;;;;4997471;28;20046;-82
2022/08/13 01:08:17;;;;;;;5.28;3.83;;;;;;;;;;5004349;28;20046;-81
2022/08/13 01:11:11;;;;;;;4.38;3.78;;;;;;;;;;4997372;28;20046;-82
2022/08/13 01:13:58;;;;;;;5.10;3.83;;;;;;;;;;4997734;28;20042;-82
2022/08/13 01:16:43;;;;;;;5.60;4.20;;;;;;;;;;4997291;28;20388;-82
2022/08/13 01:19:31;;;;;;;5.47;4.07;;;;;;;;;;4997594;28;20054;-82
2022/08/13 01:22:17;;;;;;;4.05;3.40;;;;;;;;;;4997642;28;20038;-82
2022/08/13 01:25:05;;;;;;;5.10;3.80;;;;;;;;;;4997300;28;20046;-82
2022/08/13 01:27:52;;;;;;;6.10;3.70;;;;;;;;;;4997091;28;20043;-82
2022/08/13 01:30:39;;;;;;;5.55;4.10;;;;;;;;;;5003918;28;20054;-82
2022/08/13 01:33:26;;;;;;;7.13;4.30;;;;;;;;;;4999095;28;20050;-82
2022/08/13 01:36:11;;;;;;;5.38;3.88;;;;;;;;;;4997525;28;20042;-82
2022/08/13 01:38:58;;;;;;;5.53;3.97;;;;;;;;;;4997139;28;20043;-82
2022/08/13 01:41:43;;;;;;;5.45;4.28;;;;;;;;;;4987908;28;20038;-82
2022/08/13 01:44:32;;;;;;;5.15;4.28;;;;;;;;;;4997399;28;20392;-82
2022/08/13 01:50:30;;;;;;;6.28;3.78;;;;;;;;;;4996916;28;20046;-82
2022/08/13 01:53:18;;;;;;;5.90;3.85;;;;;;;;;;5003362;28;20491;-82
2022/08/13 01:56:03;;;;;;;5.60;4.10;;;;;;;;;;4997064;28;20054;-81
2022/08/13 01:58:50;;;;;;;7.05;4.03;;;;;;;;;;4996890;28;20480;-82
2022/08/13 02:01:35;;;;;;;4.35;3.85;;;;;;;;;;4996574;28;20038;-82
2022/08/13 02:04:21;;;;;;;5.05;4.40;;;;;;;;;;4996607;28;20487;-81
2022/08/13 02:07:08;;;;;;;5.80;4.20;;;;;;;;;;4996164;28;20047;-82
2022/08/13 02:09:54;;;;;;;5.70;3.90;;;;;;;;;;4996398;28;20050;-81
2022/08/13 02:12:39;;;;;;;6.07;4.25;;;;;;;;;;4996898;28;20054;-82
2022/08/13 02:15:25;;;;;;;8.57;3.88;;;;;;;;;;4996440;28;20054;-82
2022/08/13 02:18:19;;;;;;;7.72;4.22;;;;;;;;;;4996407;28;20046;-82
2022/08/13 02:21:04;;;;;;;4.32;3.88;;;;;;;;;;4996143;28;20035;-82
2022/08/13 02:23:56;;;;;;;5.00;3.85;;;;;;;;;;4987842;28;20046;-82
2022/08/13 02:26:43;;;;;;;6.68;3.75;;;;;;;;;;5006030;28;20046;-82
2022/08/13 02:29:28;;;;;;;5.82;3.55;;;;;;;;;;4996658;28;20046;-82
2022/08/13 02:32:14;;;;;;;6.95;3.60;;;;;;;;;;4996360;28;20042;-82
2022/08/13 02:34:59;;;;;;;6.32;3.67;;;;;;;;;;4995976;28;20388;-82
2022/08/13 02:37:47;;;;;;;5.72;3.80;;;;;;;;;;4987943;28;20050;-82
2022/08/13 02:43:37;;;;;;;5.68;3.90;;;;;;;;;;4995908;28;20043;-82
2022/08/13 02:46:24;;;;;;;6.47;3.80;;;;;;;;;;4995470;28;20034;-81
2022/08/13 02:49:10;;;;;;;7.22;4.40;;;;;;;;;;4995748;28;20046;-81
2022/08/13 02:51:56;;;;;;;8.80;4.30;;;;;;;;;;4995528;28;20042;-82
2022/08/13 02:54:43;;;;;;;6.88;4.80;;;;;;;;;;4993636;28;20058;-82
2022/08/13 02:57:29;;;;;;;5.95;4.80;;;;;;;;;;4995769;28;20483;-82
2022/08/13 03:00:17;;;;;;;9.02;4.53;;;;;;;;;;5013922;28;20050;-80
2022/08/13 03:03:04;;;;;;;7.53;4.40;;;;;;;;;;4994928;28;20046;-82
2022/08/13 03:05:50;;;;;;;6.95;4.30;;;;;;;;;;4996137;28;20042;-82
2022/08/13 03:08:36;;;;;;;6.85;4.53;;;;;;;;;;4993926;28;20396;-81
2022/08/13 03:11:21;;;;;;;5.00;4.15;;;;;;;;;;4995370;28;20046;-84
2022/08/13 03:14:09;;;;;;;5.25;4.13;;;;;;;;;;4996137;28;20050;-84
2022/08/13 03:16:55;;;;;;;7.38;4.35;;;;;;;;;;4993678;28;20109;-84
2022/08/13 03:19:40;;;;;;;5.55;3.85;;;;;;;;;;4998510;28;20046;-83
2022/08/13 03:22:26;;;;;;;5.68;4.18;;;;;;;;;;4994831;28;20046;-83
2022/08/13 03:25:11;;;;;;;6.03;3.67;;;;;;;;;;4993658;28;20504;-84
2022/08/13 03:28:01;;;;;;;4.80;4.18;;;;;;;;;;4993869;28;20046;-84
2022/08/13 03:30:46;;;;;;;4.65;3.85;;;;;;;;;;4995020;28;20050;-83
2022/08/13 03:33:32;;;;;;;6.75;4.00;;;;;;;;;;4995021;28;20488;-83
2022/08/13 03:36:17;;;;;;;4.80;3.72;;;;;;;;;;5001340;28;20042;-83
2022/08/13 03:39:04;;;;;;;6.32;4.05;;;;;;;;;;4994913;28;20068;-83
2022/08/13 03:41:50;;;;;;;6.57;4.50;;;;;;;;;;4995240;28;20050;-83
2022/08/13 03:44:35;;;;;;;6.78;4.60;;;;;;;;;;4994835;28;20046;-83
2022/08/13 03:47:21;;;;;;;4.60;4.10;;;;;;;;;;4994727;28;20043;-83
2022/08/13 03:50:08;;;;;;;5.10;4.00;;;;;;;;;;4994848;28;20050;-83
2022/08/13 03:53:00;;;;;;;8.02;4.40;;;;;;;;;;4993992;28;20050;-82
2022/08/13 03:55:47;;;;;;;7.32;4.22;;;;;;;;;;4994844;28;20054;-83
2022/08/13 03:58:33;;;;;;;7.32;4.32;;;;;;;;;;4995058;28;20042;-83
2022/08/13 04:01:19;;;;;;;5.75;3.88;;;;;;;;;;4980125;28;20046;-83
2022/08/13 04:04:05;;;;;;;5.50;3.88;;;;;;;;;;4993985;28;20054;-83
2022/08/13 04:06:52;;;;;;;6.28;3.83;;;;;;;;;;4994470;28;20047;-83
2022/08/13 04:09:38;;;;;;;6.28;4.22;;;;;;;;;;4994347;28;20050;-83
2022/08/13 04:12:23;;;;;;;7.25;3.90;;;;;;;;;;4997120;28;20042;-82
2022/08/13 04:15:09;;;;;;;4.10;3.70;;;;;;;;;;4995581;28;20492;-82
2022/08/13 04:17:54;;;;;;;5.30;3.95;;;;;;;;;;4994839;28;20043;-82
2022/08/13 04:20:41;;;;;;;4.53;4.13;;;;;;;;;;4994512;28;20050;-84
2022/08/13 04:23:27;;;;;;;6.28;4.15;;;;;;;;;;4994915;28;20039;-85
2022/08/13 04:26:16;;;;;;;5.30;4.30;;;;;;;;;;4994571;28;20042;-84
2022/08/13 04:29:08;;;;;;;6.57;3.90;;;;;;;;;;4994548;28;20468;-84
2022/08/13 04:31:54;;;;;;;5.10;3.63;;;;;;;;;;4994748;28;20039;-84
2022/08/13 04:34:39;;;;;;;4.20;3.80;;;;;;;;;;4986330;28;20046;-85
2022/08/13 04:37:24;;;;;;;6.90;4.07;;;;;;;;;;4980145;28;20495;-84
2022/08/13 04:40:11;;;;;;;3.88;3.42;;;;;;;;;;4994622;28;20483;-84
2022/08/13 04:42:57;;;;;;;4.70;4.25;;;;;;;;;;4994433;28;20038;-85
2022/08/13 04:45:42;;;;;;;4.55;3.78;;;;;;;;;;4986442;28;20055;-85
2022/08/13 04:48:32;;;;;;;4.85;3.67;;;;;;;;;;4993551;28;20042;-84
2022/08/13 04:51:17;;;;;;;5.55;3.78;;;;;;;;;;4979587;28;20050;-84
2022/08/13 04:54:03;;;;;;;6.18;4.22;;;;;;;;;;4994445;28;20042;-84
2022/08/13 04:56:49;;;;;;;8.20;4.22;;;;;;;;;;4972881;28;20046;-84
2022/08/13 04:59:34;;;;;;;5.57;4.07;;;;;;;;;;4993256;28;20047;-84
2022/08/13 05:02:21;;;;;;;6.55;4.30;;;;;;;;;;4986351;28;20046;-84
2022/08/13 05:05:09;;;;;;;4.47;3.88;;;;;;;;;;4995518;28;20039;-84
2022/08/13 05:07:54;;;;;;;5.13;3.85;;;;;;;;;;4990352;28;20034;-85
2022/08/13 05:10:40;;;;;;;5.05;3.80;;;;;;;;;;4973884;28;20047;-84
2022/08/13 05:13:30;;;;;;;3.70;3.35;;;;;;;;;;4984326;28;20047;-82
2022/08/13 05:16:17;;;;;;;5.60;3.58;;;;;;;;;;4979105;28;20484;-84
2022/08/13 05:19:04;;;;;;;4.72;3.75;;;;;;;;;;4980558;28;20050;-83
2022/08/13 05:21:49;;;;;;;6.43;4.13;;;;;;;;;;4977846;28;20039;-83
2022/08/13 05:24:37;;;;;;;4.68;3.88;;;;;;;;;;4969917;28;20050;-82
2022/08/13 05:27:22;;;;;;;6.45;3.90;;;;;;;;;;4983931;28;20046;-82
2022/08/13 05:30:09;;;;;;;5.03;4.20;;;;;;;;;;4977882;28;20051;-84
2022/08/13 05:32:57;;;;;;;6.07;3.85;;;;;;;;;;4977941;28;20055;-83
2022/08/13 05:35:45;;;;;;;6.22;4.30;;;;;;;;;;4977343;28;20046;-84
2022/08/13 05:38:32;;;;;;;6.13;3.92;;;;;;;;;;4977436;28;20059;-84
2022/08/13 05:41:18;;;;;;;6.57;4.00;;;;;;;;;;4977509;28;20055;-84
2022/08/13 05:44:04;;;;;;;8.18;4.82;;;;;;;;;;4976837;28;20416;-84
2022/08/13 05:46:49;;;;;;;8.63;5.78;;;;;;;;;;4977493;28;20047;-83
2022/08/13 05:49:35;;;;;;;9.45;6.55;;;;;;;;;;4977010;28;20054;-83
2022/08/13 05:52:23;;;;;;;8.77;6.55;;;;;;;;;;4977505;28;20043;-84
2022/08/13 05:55:11;;;;;;;10.80;6.60;;;;;;;;;;4977511;28;20042;-83
2022/08/13 05:57:57;;;;;;;6.63;5.95;;;;;;;;;;4977024;28;20051;-83
2022/08/13 06:03:46;;;;;;;8.48;5.80;;;;;;;;;;4977324;28;20046;-83
2022/08/13 06:06:32;;;;;;;8.35;5.15;;;;;;;;;;4968662;28;20054;-80
2022/08/13 06:09:19;;;;;;;14.50;6.00;;;;;;;;;;4976967;28;20047;-81
2022/08/13 06:12:05;;;;;;;10.35;5.75;;;;;;;;;;5015650;28;20046;-82
2022/08/13 06:14:52;;;;;;;18.02;5.15;;;;;;;;;;5022143;28;20050;-82
2022/08/13 06:17:38;;;;;;;10.30;6.03;;;;;;;;;;5015979;28;20041;-82
2022/08/13 06:20:24;;;;;;;6.40;5.07;;;;;;;;;;5016015;28;20042;-82
2022/08/13 06:23:12;;;;;;;9.30;5.05;;;;;;;;;;5015620;28;20045;-83
2022/08/13 06:25:59;;;;;;;16.60;5.93;;;;;;;;;;5022561;28;20049;-79
2022/08/13 06:28:46;;;;;;;7.50;4.68;;;;;;;;;;5020124;28;20050;-82
2022/08/13 06:31:34;;;;;;;10.63;4.97;;;;;;;;;;5019764;28;20042;-81
2022/08/13 06:34:20;;;;;;;9.57;5.32;;;;;;;;;;5026625;28;20471;-82
2022/08/13 06:37:05;;;;;;;9.13;4.95;;;;;;;;;;5020010;28;20042;-81
2022/08/13 06:39:51;;;;;;;7.57;5.22;;;;;;;;;;5019996;28;20042;-80
2022/08/13 06:42:36;;;;;;;6.50;4.75;;;;;;;;;;5018979;28;20041;-81
2022/08/13 06:45:21;;;;;;;10.20;5.72;;;;;;;;;;5020597;28;20041;-82
2022/08/13 06:48:07;;;;;;;11.50;6.47;;;;;;;;;;5020909;28;20041;-82
2022/08/13 06:50:53;;;;;;;16.48;7.28;;;;;;;;;;5015338;28;20042;-82
2022/08/13 06:53:40;;;;;;;13.05;5.30;;;;;;;;;;5017894;28;20045;-83
2022/08/13 06:56:29;;;;;;;18.83;6.63;;;;;;;;;;5015109;28;20062;-83
2022/08/13 06:59:16;;;;;;;13.48;6.30;;;;;;;;;;5015000;28;20042;-83
2022/08/13 07:02:03;;;;;;;8.48;5.57;;;;;;;;;;5021989;28;20046;-84
2022/08/13 07:04:48;;;;;;;9.63;6.30;;;;;;;;;;5014960;28;20042;-83
2022/08/13 07:07:48;;;;;;;15.27;5.90;;;;;;;;;;5014731;28;20042;-83
2022/08/13 07:10:35;;;;;;;7.43;4.50;;;;;;;;;;5014626;28;20053;-83
2022/08/13 07:13:20;;;;;;;5.50;3.60;;;;;;;;;;5014586;28;20046;-83
2022/08/13 07:16:08;;;;;;;6.07;4.22;;;;;;;;;;5014616;28;20050;-83
2022/08/13 07:18:53;;;;;;;13.00;4.18;;;;;;;;;;5014345;28;20042;-82
2022/08/13 07:21:42;;;;;;;4.55;3.88;;;;;;;;;;5014739;28;20042;-85
2022/08/13 07:24:27;;;;;;;8.10;3.95;;;;;;;;;;5000353;28;20046;-83
2022/08/13 07:27:13;;;;;;;5.38;3.90;;;;;;;;;;5026330;28;20042;-82
2022/08/13 07:29:59;;;;;;;12.60;3.97;;;;;;;;;;5028622;28;20046;-83
2022/08/13 07:32:45;;;;;;;7.40;4.35;;;;;;;;;;5015475;28;20488;-82
2022/08/13 07:35:37;;;;;;;19.80;5.30;;;;;;;;;;5013677;28;20484;-79
2022/08/13 07:38:25;;;;;;;5.68;3.92;;;;;;;;;;5013656;28;20045;-84
2022/08/13 07:41:11;;;;;;;5.10;3.90;;;;;;;;;;5014178;28;20423;-83
2022/08/13 07:43:58;;;;;;;5.13;3.40;;;;;;;;;;5015445;28;20045;-84
2022/08/13 07:46:44;;;;;;;14.07;9.27;;;;;;;;;;5025563;28;20042;-84
2022/08/13 07:49:30;;;;;;;49.22;35.67;;;;;;;;;;5014572;28;20041;-87
2022/08/13 07:52:16;;;;;;;585.13;431.40;;;;;;;;;;5014658;28;20046;-85
2022/08/13 07:55:02;;;;;;;250.43;146.10;;;;;;;;;;5020431;28;20377;-84
2022/08/13 07:57:48;;;;;;;129.10;82.63;;;;;;;;;;5013718;28;20057;-83
2022/08/13 08:00:35;;;;;;;47.58;31.73;;;;;;;;;;5014161;28;20046;-83
2022/08/13 08:03:32;;;;;;;9.48;6.53;;;;;;;;;;5014254;28;20038;-84
2022/08/13 08:06:18;;;;;;;4.72;3.50;;;;;;;;;;5014273;28;20034;-83
2022/08/13 08:09:05;;;;;;;5.78;3.65;;;;;;;;;;5014362;28;20046;-85
2022/08/13 08:28:11;;;;;;;3.80;2.88;;;;;;;;;;4922493;29;20052;-88
2022/08/13 08:47:45;;;;;;;3.60;3.00;;;;;;;;;;4914814;29;20048;-81
2022/08/13 08:50:32;;;;;;;3.45;3.15;;;;;;;;;;4946041;28;20050;-79
2022/08/13 08:53:22;;;;;;;5.25;3.08;;;;;;;;;;5017685;28;20053;-84
2022/08/13 08:56:08;;;;;;;5.28;2.78;;;;;;;;;;5017817;28;20045;-83
2022/08/13 08:58:55;;;;;;;3.95;2.80;;;;;;;;;;5017837;28;20030;-87
2022/08/13 09:01:42;;;;;;;3.20;2.90;;;;;;;;;;5017023;28;20046;-86
2022/08/13 09:04:29;;;;;;;4.78;2.67;;;;;;;;;;5003822;28;20042;-88
2022/08/13 09:07:16;;;;;;;5.03;3.20;;;;;;;;;;5018917;28;20049;-88
2022/08/13 09:10:04;;;;;;;5.82;3.50;;;;;;;;;;5017737;28;20050;-87
2022/08/13 09:12:50;;;;;;;4.38;3.03;;;;;;;;;;5017484;28;20046;-87
2022/08/13 09:15:39;;;;;;;3.85;3.10;;;;;;;;;;5009949;28;20037;-87
2022/08/13 09:18:24;;;;;;;7.50;4.10;;;;;;;;;;5003945;28;20033;-87
2022/08/13 09:21:10;;;;;;;6.65;3.45;;;;;;;;;;5016442;28;20491;-88
2022/08/13 09:23:56;;;;;;;7.32;3.25;;;;;;;;;;5009160;28;20054;-85
2022/08/13 09:26:47;;;;;;;4.63;3.05;;;;;;;;;;5020103;28;20042;-88
2022/08/13 09:29:34;;;;;;;11.68;4.25;;;;;;;;;;5018138;28;20079;-87
2022/08/13 09:32:21;;;;;;;6.63;3.58;;;;;;;;;;5014518;28;20046;-87
2022/08/13 09:35:07;;;;;;;6.03;3.58;;;;;;;;;;5018608;28;20403;-86
2022/08/13 09:37:58;;;;;;;6.78;3.28;;;;;;;;;;5017366;28;20038;-87
2022/08/13 09:41:21;;;;;;;11.48;3.80;;;;;;;;;;5019279;28;20041;-87
2022/08/13 09:44:07;;;;;;;4.53;3.67;;;;;;;;;;4961853;28;20031;-87
2022/08/13 09:46:52;;;;;;;19.08;9.02;;;;;;;;;;5019232;28;20046;-88
2022/08/13 09:49:38;;;;;;;4.93;3.58;;;;;;;;;;5009754;28;20053;-88
2022/08/13 09:52:23;;;;;;;5.55;3.25;;;;;;;;;;5010134;28;20046;-87
2022/08/13 09:55:09;;;;;;;4.07;3.47;;;;;;;;;;5017671;28;20050;-88
2022/08/13 09:57:59;;;;;;;4.32;3.45;;;;;;;;;;5009930;28;20046;-88
2022/08/13 10:00:46;;;;;;;4.85;3.50;;;;;;;;;;5009655;28;20038;-87
2022/08/13 10:03:33;;;;;;;4.07;3.50;;;;;;;;;;5002600;28;20502;-87
2022/08/13 10:06:18;;;;;;;6.85;4.05;;;;;;;;;;5009391;28;20050;-88
2022/08/13 10:09:04;;;;;;;5.40;3.72;;;;;;;;;;5009746;28;20046;-87
2022/08/13 10:11:50;;;;;;;8.80;4.13;;;;;;;;;;5017853;28;20050;-88
2022/08/13 10:14:36;;;;;;;4.15;3.53;;;;;;;;;;5016784;28;20057;-89
2022/08/13 10:17:22;;;;;;;5.85;4.00;;;;;;;;;;5009162;28;20041;-88
2022/08/13 10:20:08;;;;;;;5.05;3.38;;;;;;;;;;5007156;28;20415;-88
2022/08/13 10:22:55;;;;;;;4.90;3.58;;;;;;;;;;5007486;28;20069;-89
2022/08/13 10:25:52;;;;;;;8.88;6.40;;;;;;;;;;5012096;28;20042;-90
2022/08/13 10:28:37;;;;;;;11.30;7.07;;;;;;;;;;5008182;28;20042;-88
2022/08/13 10:31:27;;;;;;;5.93;3.70;;;;;;;;;;5016352;28;20049;-88
2022/08/13 10:34:13;;;;;;;7.15;4.63;;;;;;;;;;5002647;28;20046;-89
2022/08/13 10:37:03;;;;;;;41.55;19.55;;;;;;;;;;4995240;28;20049;-89
2022/08/13 10:39:49;;;;;;;25.92;12.52;;;;;;;;;;4995126;28;20037;-89
2022/08/13 10:42:35;;;;;;;13.90;7.63;;;;;;;;;;5017149;28;20042;-89
2022/08/13 10:45:25;;;;;;;7.32;4.00;;;;;;;;;;5008674;28;20046;-88
2022/08/13 10:48:13;;;;;;;4.82;3.28;;;;;;;;;;5015013;28;20038;-84
2022/08/13 10:50:59;;;;;;;4.10;3.70;;;;;;;;;;5017110;28;20046;-86
2022/08/13 10:53:58;;;;;;;6.72;4.30;;;;;;;;;;5016886;28;20050;-86
2022/08/13 10:56:43;;;;;;;4.90;4.32;;;;;;;;;;5016111;28;20046;-86
2022/08/13 10:59:29;;;;;;;7.03;4.07;;;;;;;;;;5016071;28;20483;-87
2022/08/13 11:02:15;;;;;;;5.40;4.05;;;;;;;;;;5015020;28;20049;-86
2022/08/13 11:05:01;;;;;;;4.80;4.00;;;;;;;;;;5015888;28;20045;-85
2022/08/13 11:07:47;;;;;;;10.40;4.03;;;;;;;;;;5016188;28;20042;-87
2022/08/13 11:10:35;;;;;;;5.45;4.28;;;;;;;;;;5005861;28;20045;-88
2022/08/13 11:13:23;;;;;;;19.77;9.80;;;;;;;;;;5023188;28;20046;-88
2022/08/13 11:19:25;;;;;;;5.40;3.80;;;;;;;;;;5015450;28;20384;-88
2022/08/13 11:22:11;;;;;;;5.63;4.60;;;;;;;;;;5008791;28;20042;-89
2022/08/13 11:25:03;;;;;;;5.00;4.50;;;;;;;;;;5008259;28;20491;-86
2022/08/13 11:27:58;;;;;;;40.72;15.52;;;;;;;;;;5015916;28;20455;-89
2022/08/13 11:35:37;;;;;;;20.75;9.05;;;;;;;;;;4933500;28;20047;-89
2022/08/13 11:43:25;;;;;;;8.50;5.20;;;;;;;;;;4943546;29;20039;-90
2022/08/13 11:46:48;;;;;;;22.08;10.27;;;;;;;;;;4935934;29;20529;-89
2022/08/13 11:49:38;;;;;;;10.60;6.80;;;;;;;;;;4930290;29;20063;-89
2022/08/13 11:52:40;;;;;;;5.68;4.10;;;;;;;;;;4937838;28;20036;-88
2022/08/13 11:55:40;;;;;;;4.53;4.10;;;;;;;;;;4995457;28;20490;-89
2022/08/13 11:58:26;;;;;;;4.85;4.35;;;;;;;;;;5016396;23;20381;-82
2022/08/13 12:01:16;;;;;;;4.75;4.28;;;;;;;;;;5000891;28;20050;-82
2022/08/13 12:04:02;;;;;;;4.57;3.90;;;;;;;;;;5000068;28;20406;-81
2022/08/13 12:06:47;;;;;;;7.10;4.22;;;;;;;;;;4998729;28;20054;-84
2022/08/13 12:09:32;;;;;;;4.90;4.00;;;;;;;;;;4975041;28;20047;-81
2022/08/13 12:12:18;;;;;;;5.90;4.22;;;;;;;;;;4991591;28;20046;-82
2022/08/13 12:15:05;;;;;;;16.60;7.68;;;;;;;;;;4993240;28;20042;-83
2022/08/13 12:17:50;;;;;;;4.20;3.80;;;;;;;;;;4980541;28;20521;-81
2022/08/13 12:20:36;;;;;;;4.38;3.92;;;;;;;;;;5001074;28;20401;-81
2022/08/13 12:23:22;;;;;;;5.55;3.78;;;;;;;;;;5000543;28;20050;-81
2022/08/13 12:26:07;;;;;;;4.55;3.65;;;;;;;;;;5000238;28;20054;-81
2022/08/13 12:28:53;;;;;;;162.35;64.35;;;;;;;;;;5000443;28;20042;-81
2022/08/13 12:31:38;;;;;;;5.18;4.40;;;;;;;;;;5000709;28;20046;-81
2022/08/13 12:34:24;;;;;;;7.20;4.53;;;;;;;;;;5000908;28;20050;-83
2022/08/13 12:37:09;;;;;;;5.90;4.03;;;;;;;;;;5000458;28;20054;-80
2022/08/13 12:39:56;;;;;;;5.28;4.03;;;;;;;;;;4994554;28;20042;-80
2022/08/13 12:42:42;;;;;;;4.53;3.85;;;;;;;;;;5001011;28;20050;-81
2022/08/13 12:45:27;;;;;;;25.73;10.93;;;;;;;;;;5000504;28;20050;-81
2022/08/13 12:48:15;;;;;;;79.13;25.67;;;;;;;;;;4986986;28;20047;-81
2022/08/13 12:51:00;;;;;;;12.07;6.60;;;;;;;;;;4984782;28;20054;-81
2022/08/13 12:53:46;;;;;;;4.63;4.18;;;;;;;;;;5000980;28;20046;-80
2022/08/13 12:56:32;;;;;;;6.82;4.40;;;;;;;;;;5000340;28;20046;-81
2022/08/13 12:59:17;;;;;;;6.22;4.43;;;;;;;;;;4996205;28;20050;-83
2022/08/13 13:02:03;;;;;;;4.25;3.85;;;;;;;;;;5001946;28;20051;-80
2022/08/13 13:04:49;;;;;;;5.75;4.47;;;;;;;;;;5003772;28;20042;-81
2022/08/13 13:07:34;;;;;;;6.13;4.90;;;;;;;;;;5010158;28;20474;-77
2022/08/13 13:10:19;;;;;;;6.90;4.90;;;;;;;;;;5007982;28;20042;-80
2022/08/13 13:13:05;;;;;;;6.10;4.78;;;;;;;;;;5003829;28;20046;-81
2022/08/13 13:15:52;;;;;;;34.28;16.77;;;;;;;;;;5000446;28;20397;-82
2022/08/13 13:18:37;;;;;;;5.60;5.00;;;;;;;;;;5000019;28;20066;-79
2022/08/13 13:21:23;;;;;;;6.68;4.80;;;;;;;;;;5000526;28;20481;-82
2022/08/13 13:24:13;;;;;;;5.75;4.47;;;;;;;;;;5000471;28;20050;-82
2022/08/13 13:26:59;;;;;;;6.60;4.40;;;;;;;;;;5000638;28;20050;-82
2022/08/13 13:29:44;;;;;;;5.28;4.63;;;;;;;;;;5000261;28;20046;-83
2022/08/13 13:32:29;;;;;;;5.35;4.85;;;;;;;;;;5000011;28;20117;-82
2022/08/13 13:35:15;;;;;;;6.13;5.20;;;;;;;;;;4991791;28;20043;-84
2022/08/13 13:38:01;;;;;;;7.55;4.55;;;;;;;;;;4988584;28;20401;-81
2022/08/13 13:40:50;;;;;;;6.90;4.53;;;;;;;;;;4996878;28;20405;-82
2022/08/13 13:43:36;;;;;;;5.55;4.28;;;;;;;;;;5003657;28;20055;-80
2022/08/13 13:46:22;;;;;;;8.60;4.57;;;;;;;;;;5003227;28;20046;-83
2022/08/13 13:49:08;;;;;;;5.20;4.70;;;;;;;;;;5003349;28;20482;-83
2022/08/13 13:51:54;;;;;;;4.57;4.15;;;;;;;;;;5003467;28;20047;-81
2022/08/13 13:54:40;;;;;;;7.03;4.55;;;;;;;;;;4996348;28;20047;-83
2022/08/13 13:57:26;;;;;;;5.03;4.40;;;;;;;;;;5003442;28;20054;-80
2022/08/13 14:00:12;;;;;;;5.22;4.72;;;;;;;;;;4995516;28;20046;-81
2022/08/13 14:02:58;;;;;;;4.70;4.20;;;;;;;;;;5003229;28;20054;-82
2022/08/13 14:05:43;;;;;;;5.13;4.50;;;;;;;;;;4996620;28;20050;-82
2022/08/13 14:08:30;;;;;;;6.72;5.35;;;;;;;;;;5002249;28;20050;-82
2022/08/13 14:11:18;;;;;;;8.45;4.90;;;;;;;;;;5001182;28;20042;-81
2022/08/13 14:14:03;;;;;;;6.20;4.72;;;;;;;;;;4995784;28;20433;-81
2022/08/13 14:16:48;;;;;;;8.95;5.63;;;;;;;;;;5000856;28;20046;-79
2022/08/13 14:19:36;;;;;;;6.55;5.13;;;;;;;;;;5000802;28;20054;-82
2022/08/13 14:22:21;;;;;;;6.38;5.60;;;;;;;;;;5002639;28;20042;-79
2022/08/13 14:25:10;;;;;;;5.53;4.93;;;;;;;;;;4998677;28;20113;-81
2022/08/13 14:27:57;;;;;;;5.90;5.30;;;;;;;;;;4998604;28;20046;-80
2022/08/13 14:30:43;;;;;;;7.00;5.57;;;;;;;;;;4996227;28;20050;-79
2022/08/13 14:33:30;;;;;;;5.88;5.28;;;;;;;;;;5002677;28;20050;-78
2022/08/13 14:36:15;;;;;;;6.85;5.43;;;;;;;;;;5002336;28;20042;-78
2022/08/13 14:39:04;;;;;;;7.65;5.18;;;;;;;;;;5002298;28;20058;-80
2022/08/13 14:41:49;;;;;;;9.82;6.13;;;;;;;;;;4996279;28;20047;-82
2022/08/13 14:44:35;;;;;;;7.03;5.72;;;;;;;;;;4986024;28;20050;-82
2022/08/13 14:47:20;;;;;;;8.38;5.18;;;;;;;;;;4994634;28;20050;-80
2022/08/13 14:50:06;;;;;;;6.95;5.93;;;;;;;;;;5001220;28;20046;-83
2022/08/13 14:52:51;;;;;;;5.75;4.90;;;;;;;;;;4993609;28;20051;-81
2022/08/13 14:55:41;;;;;;;6.55;5.60;;;;;;;;;;4986294;28;20486;-80
2022/08/13 14:58:30;;;;;;;7.50;5.43;;;;;;;;;;4993614;28;20405;-80
2022/08/13 15:01:16;;;;;;;6.80;5.30;;;;;;;;;;4985378;28;20043;-83
2022/08/13 15:04:06;;;;;;;6.05;5.25;;;;;;;;;;4989990;28;20043;-82
2022/08/13 15:06:53;;;;;;;6.88;5.28;;;;;;;;;;4985316;28;20050;-81
2022/08/13 15:09:39;;;;;;;7.03;5.07;;;;;;;;;;4991524;28;20046;-80
2022/08/13 15:12:30;;;;;;;6.45;5.20;;;;;;;;;;4992387;28;20042;-79
2022/08/13 15:15:17;;;;;;;7.82;5.35;;;;;;;;;;4992919;28;20050;-78
2022/08/13 15:18:03;;;;;;;7.25;5.30;;;;;;;;;;4983090;28;20046;-80
2022/08/13 15:20:52;;;;;;;8.60;5.45;;;;;;;;;;5001846;28;20057;-80
2022/08/13 15:23:38;;;;;;;8.45;5.15;;;;;;;;;;5001293;28;20055;-82
2022/08/13 15:26:23;;;;;;;8.73;5.47;;;;;;;;;;4995137;28;20042;-80
2022/08/13 15:29:09;;;;;;;6.25;5.65;;;;;;;;;;5001360;28;20054;-80
2022/08/13 15:31:55;;;;;;;6.70;5.70;;;;;;;;;;4997368;28;20042;-81
2022/08/13 15:34:40;;;;;;;7.95;5.65;;;;;;;;;;4983211;28;20038;-80
2022/08/13 15:37:26;;;;;;;7.80;5.30;;;;;;;;;;5001700;28;20054;-81
2022/08/13 15:40:19;;;;;;;7.15;5.97;;;;;;;;;;4994043;28;20046;-81
2022/08/13 15:43:06;;;;;;;6.03;5.30;;;;;;;;;;4989479;28;20091;-82
2022/08/13 15:45:52;;;;;;;9.98;5.55;;;;;;;;;;5001545;28;20058;-81
2022/08/13 15:48:38;;;;;;;7.25;5.53;;;;;;;;;;5003617;28;20042;-82
2022/08/13 15:51:23;;;;;;;7.15;5.88;;;;;;;;;;5007807;28;20054;-79
2022/08/13 15:54:09;;;;;;;7.35;5.55;;;;;;;;;;5005771;28;20050;-79
2022/08/13 15:57:05;;;;;;;7.38;5.38;;;;;;;;;;4993922;28;20042;-82
2022/08/13 15:59:50;;;;;;;7.85;5.75;;;;;;;;;;4987491;28;20058;-81
2022/08/13 16:02:37;;;;;;;6.78;5.65;;;;;;;;;;4988012;28;20051;-79
2022/08/13 16:05:25;;;;;;;6.93;6.18;;;;;;;;;;4983310;28;20051;-81
2022/08/13 16:08:12;;;;;;;7.43;5.85;;;;;;;;;;4984944;28;20042;-79
2022/08/13 16:10:59;;;;;;;8.95;6.13;;;;;;;;;;4997779;28;20046;-81
2022/08/13 16:13:44;;;;;;;7.47;6.05;;;;;;;;;;4993829;28;20039;-80
2022/08/13 16:16:30;;;;;;;7.55;6.05;;;;;;;;;;4994107;28;20035;-80
2022/08/13 16:19:15;;;;;;;8.63;5.88;;;;;;;;;;5000668;28;20050;-82
2022/08/13 16:22:02;;;;;;;6.90;5.28;;;;;;;;;;5000894;28;20050;-83
2022/08/13 16:24:48;;;;;;;10.90;7.00;;;;;;;;;;5000566;28;20046;-80
2022/08/13 16:27:34;;;;;;;10.05;6.80;;;;;;;;;;5000232;28;20050;-80
2022/08/13 16:30:24;;;;;;;8.27;5.80;;;;;;;;;;5000694;28;20038;-80
2022/08/13 16:33:11;;;;;;;9.00;6.05;;;;;;;;;;5000537;28;20050;-81
2022/08/13 16:35:55;;;;;;;13.30;9.27;;;;;;;;;;5000850;28;20046;-81
2022/08/13 16:38:40;;;;;;;14.52;9.90;;;;;;;;;;5000280;28;20485;-80
2022/08/13 16:41:26;;;;;;;10.60;8.77;;;;;;;;;;4993625;28;20046;-80
2022/08/13 16:44:12;;;;;;;13.25;8.80;;;;;;;;;;4990479;28;20039;-78
2022/08/13 16:46:58;;;;;;;14.40;9.13;;;;;;;;;;4984092;28;20042;-77
2022/08/13 16:49:44;;;;;;;10.63;9.32;;;;;;;;;;4990023;28;20047;-81
2022/08/13 16:52:30;;;;;;;11.65;9.73;;;;;;;;;;4988110;28;20046;-81
2022/08/13 16:55:18;;;;;;;15.98;10.15;;;;;;;;;;4996657;28;20038;-81
2022/08/13 16:58:04;;;;;;;11.27;9.95;;;;;;;;;;4990776;28;20042;-80
2022/08/13 17:00:50;;;;;;;13.32;10.02;;;;;;;;;;4986221;28;20519;-80
2022/08/13 17:09:42;;;;;;;13.43;9.32;;;;;;;;;;4980378;28;20402;-81
2022/08/13 17:12:28;;;;;;;10.00;8.88;;;;;;;;;;4983656;28;20046;-81
2022/08/13 17:15:17;;;;;;;11.88;8.73;;;;;;;;;;4984395;28;20050;-81
2022/08/13 17:18:03;;;;;;;9.95;8.63;;;;;;;;;;4991819;28;20481;-80
2022/08/13 17:20:48;;;;;;;11.38;9.35;;;;;;;;;;5004065;28;20046;-80
2022/08/13 17:23:34;;;;;;;11.30;10.10;;;;;;;;;;5003636;28;20054;-78
2022/08/13 17:26:19;;;;;;;14.02;11.10;;;;;;;;;;5003671;28;20054;-79
2022/08/13 17:29:07;;;;;;;12.52;9.82;;;;;;;;;;5003679;28;20138;-79
2022/08/13 17:31:56;;;;;;;14.15;9.52;;;;;;;;;;5003956;28;20046;-81
2022/08/13 17:34:41;;;;;;;11.05;9.05;;;;;;;;;;4992552;28;20051;-81
2022/08/13 17:37:27;;;;;;;12.30;9.73;;;;;;;;;;4984114;28;20051;-82
2022/08/13 17:40:13;;;;;;;13.25;10.23;;;;;;;;;;4984412;28;20055;-80
2022/08/13 17:43:00;;;;;;;15.68;12.05;;;;;;;;;;4984472;28;20046;-79
2022/08/13 17:45:46;;;;;;;16.88;10.73;;;;;;;;;;4984184;28;20478;-81